Flight Track Log - Related Links

Times and Time Zones

All times are in EDT time to prevent confusion due to time zone crossing. See the DAL1118 flight status page for this flight to view local times or setup timezone preferences in your user account.

Time Position Orientation Groundspeed Altitude Reporting Facility
EDT Latitude Longitude Course Direction KTS MPH feet Rate Location/Type
Tue 07:15:56 PM 33.6333 -84.4000 81° East 162 186 2,300  Level Atlanta TRACON
Tue 07:16:56 PM 33.6333 -84.3167 90° East 254 292 5,000 2,900 Climbing Atlanta TRACON
Tue 07:17:56 PM 33.6333 -84.2333 90° East 299 344 8,100 2,582 Climbing Atlanta TRACON
Tue 07:18:00 PM 33.7045 -84.0054 118° Southeast  Level FlightAware Approximate
Tue 07:19:00 PM 33.6493 -83.8791 118° Southeast  Level FlightAware Approximate
Tue 07:19:41 PM 33.6000 -84.0439 102° East 329 379 12,100  Level Atlanta Center
Tue 07:20:00 PM 33.5934 -83.7534 121° Southeast  Level FlightAware Approximate
Tue 07:20:41 PM 33.5814 -83.9092 99° East 382 440 14,400  Level Atlanta Center
Tue 07:21:00 PM 33.5336 -83.6310 81° East  Level FlightAware Approximate
Tue 07:21:41 PM 33.5603 -83.7622 100° East 428 493 17,800  Level Atlanta Center
Tue 07:22:41 PM 33.5492 -83.6100 95° East 459 528 19,800 2,050 Climbing Atlanta Center
Tue 07:23:41 PM 33.5675 -83.4531 82° East 464 534 21,900 2,350 Climbing Atlanta Center
Tue 07:24:41 PM 33.5853 -83.2908 82° East 485 558 24,500 2,650 Climbing Atlanta Center
Tue 07:25:41 PM 33.6031 -83.1283 82° East 485 558 27,200 2,250 Climbing Atlanta Center
Tue 07:26:41 PM 33.6206 -82.9711 82° East 480 552 29,000 900 Climbing Atlanta Center
Tue 07:27:41 PM 33.6400 -82.8111 82° East 475 547 29,000  Level Atlanta Center
Tue 07:28:41 PM 33.6550 -82.6686 83° East 475 547 29,000  Level Atlanta Center
Tue 07:30:45 PM 33.6869 -82.3233 84° East 491 565 29,000  Level Jacksonville Center
Tue 07:31:45 PM 33.7069 -82.1686 81° East 485 558 29,000  Level Jacksonville Center
Tue 07:32:45 PM 33.7394 -82.0133 76° East 479 551 29,000  Level Jacksonville Center
Tue 07:33:45 PM 33.7717 -81.8733 74° East 479 551 29,000  Level Jacksonville Center
Tue 07:34:45 PM 33.8058 -81.7228 75° East 473 544 29,000  Level Jacksonville Center
Tue 07:35:45 PM 33.8586 -81.5747 67° East 473 544 29,000  Level Jacksonville Center
Tue 07:36:45 PM 33.9178 -81.4336 63° Northeast 473 544 29,000  Level Jacksonville Center
Tue 07:37:45 PM 33.9722 -81.2950 65° Northeast 467 537 29,000  Level Jacksonville Center
Tue 07:38:45 PM 34.0311 -81.1536 63° Northeast 467 537 29,000  Level Jacksonville Center
Tue 07:39:45 PM 34.0933 -80.9994 64° Northeast 467 537 29,000  Level Jacksonville Center
Tue 07:40:45 PM 34.1517 -80.8600 63° Northeast 467 537 29,000  Level Jacksonville Center
Tue 07:41:45 PM 34.2100 -80.7206 63° Northeast 467 537 29,000 -350 Level Jacksonville Center
Tue 07:42:45 PM 34.2658 -80.5786 65° Northeast 467 537 28,300 -1,250 Descending Jacksonville Center
Tue 07:43:45 PM 34.3258 -80.4386 63° Northeast 467 537 26,500 -2,100 Descending Jacksonville Center
Tue 07:44:45 PM 34.3794 -80.2986 65° Northeast 467 537 24,100 -1,300 Descending Jacksonville Center
Tue 07:45:45 PM 34.4367 -80.1561 64° Northeast 467 537 23,900 -1,400 Descending Jacksonville Center
Tue 07:46:45 PM 34.4942 -80.0181 63° Northeast 467 537 21,300 -2,813 Descending Jacksonville Center
Tue 07:48:57 PM 34.6050 -79.7300 65° Northeast 448 516 14,900 -2,688 Descending Washington Center
Tue 07:49:57 PM 34.6578 -79.5964 64° Northeast 411 473 12,700 -1,750 Descending Washington Center
Tue 07:50:57 PM 34.6964 -79.4972 65° Northeast 368 423 11,400 -1,450 Descending Washington Center
Tue 07:51:57 PM 34.7375 -79.3906 65° Northeast 323 372 9,800 -1,800 Descending Washington Center
Tue 07:52:57 PM 34.7672 -79.3086 66° East 301 346 7,800 -2,050 Descending Washington Center
Tue 07:53:57 PM 34.8031 -79.2242 63° Northeast 290 334 5,700 -2,100 Descending Washington Center
Tue 07:54:57 PM 34.8306 -79.1419 68° East 278 320 3,600 -1,350 Descending Washington Center
Tue 07:55:57 PM 34.8600 -79.0672 64° Northeast 257 296 3,000 -500 Descending Washington Center
Tue 07:56:57 PM 34.8847 -79.0050 64° Northeast 193 222 2,600 -450 Descending Washington Center
Tue 07:57:57 PM 34.9111 -78.9556 57° Northeast 181 208 2,100 -500 Descending Washington Center

Login

Don't have an account? Register now (free) for customized features, flight alerts, and more!